Nor Naomi — V7NL5 — position and weather

sailwx.info

Track history (hours):
 
Tides and Currents Weather Stations Pressure Air Temp Water Temp Dewpoint Dewpoint Depression Visibility Wind Speed Wind Dir Waves Ship Positions

Nor Naomi

Last reported at 2018-Apr-17 07:45 UTC. Time now 2018-Apr-27 01:11 UTC.
Position N 32°51' E 035°01'.
Warning: this ship's position is 9 days out of date.

Length 86 m; draft 5.1 m.

Type: Ship. MMSI: 538007432.

Date/timePositionNaut miles runAvg speedWind from/ knotsBaromVisibWave heightAir tempDewpointWater temp
2018-Apr-17 07:45N 32°51' E 035°01'2 5.6
2018-Apr-17 07:25N 32°51' E 034°59'0 0.1
2018-Apr-17 06:56N 32°51' E 034°59'0 0.4
2018-Apr-17 06:29N 32°52' E 034°59'0 0.5
2018-Apr-17 06:00N 32°51' E 034°58'0 0.6
2018-Apr-17 05:29N 32°51' E 034°58'0 1.0
2018-Apr-17 05:00N 32°51' E 034°59'0 0.4
2018-Apr-17 04:26N 32°51' E 034°58'0 0.6
2018-Apr-17 03:58N 32°51' E 034°58'0 0.4
2018-Apr-17 03:29N 32°51' E 034°59'0 0.3
2018-Apr-17 03:00N 32°51' E 034°59'0 0.2
2018-Apr-17 02:27N 32°51' E 034°59'0 0.3
2018-Apr-17 01:59N 32°51' E 034°59'0 0.4
2018-Apr-17 01:28N 32°51' E 034°59'1 2.0
2018-Apr-17 01:00N 32°52' E 034°58'4 7.5
2018-Apr-17 00:30N 32°52' E 034°53'3 6.7
2018-Apr-16 23:59N 32°50' E 034°50'5 9.6
2018-Apr-16 23:30N 32°45' E 034°49'5 9.5
2018-Apr-16 23:01N 32°41' E 034°47'5 9.4
2018-Apr-16 22:31N 32°36' E 034°46'5 9.4
2018-Apr-16 22:00N 32°32' E 034°44'5 9.2
2018-Apr-16 21:30N 32°27' E 034°43'5 9.2
2018-Apr-16 21:00N 32°23' E 034°41'5 9.1
2018-Apr-16 20:30N 32°18' E 034°39'4 9.0
2018-Apr-16 20:00N 32°14' E 034°38'5 9.1
2018-Apr-16 19:30N 32°10' E 034°36'5 9.4
2018-Apr-16 19:01N 32°05' E 034°35'5 9.1
2018-Apr-16 18:28N 32°01' E 034°33'8 8.5
2018-Apr-16 17:35N 31°53' E 034°31'1 8.7
2018-Apr-16 17:30N 31°53' E 034°32'5 9.0
2018-Apr-16 16:59N 31°52' E 034°37'17 0.6
2018-Apr-15 13:42N 31°45' E 034°18'0 0.0
2018-Apr-15 13:15N 31°45' E 034°18'0 0.0
2018-Apr-15 13:00N 31°45' E 034°18'0 0.0
2018-Apr-15 12:25N 31°45' E 034°18'0 0.0
2018-Apr-15 12:00N 31°45' E 034°18'0 0.0
2018-Apr-15 11:30N 31°45' E 034°18'0 0.0
2018-Apr-15 11:00N 31°45' E 034°18'0 0.0
2018-Apr-15 10:29N 31°45' E 034°18'0 0.0
2018-Apr-15 10:00N 31°45' E 034°18'0 0.3
2018-Apr-15 09:30N 31°45' E 034°19'1 2.4
2018-Apr-15 09:00N 31°45' E 034°17'11 3.7
2018-Apr-15 06:01N 31°49' E 034°29'0 9.5
2018-Apr-15 06:00N 31°49' E 034°30'8 0.8
2018-Apr-14 20:51N 31°50' E 034°39'0 0.0
2018-Apr-14 20:15N 31°50' E 034°39'0 0.0
2018-Apr-14 19:57N 31°50' E 034°39'0 0.0
2018-Apr-14 18:15N 31°50' E 034°39'0 0.0
2018-Apr-14 18:00N 31°50' E 034°39'0 0.0
2018-Apr-14 17:30N 31°50' E 034°39'0 0.0
2018-Apr-14 17:00N 31°50' E 034°39'0 0.0
2018-Apr-14 16:27N 31°50' E 034°39'0 0.0
2018-Apr-14 16:00N 31°50' E 034°39'0 0.0
2018-Apr-14 14:51N 31°50' E 034°39'0 0.0
2018-Apr-14 13:45N 31°50' E 034°39'0 0.0
2018-Apr-14 13:18N 31°50' E 034°39'0 0.0
2018-Apr-14 12:57N 31°50' E 034°39'0 0.0
2018-Apr-14 12:30N 31°50' E 034°39'0 0.0
2018-Apr-14 11:57N 31°50' E 034°39'0 0.0
2018-Apr-14 11:15N 31°50' E 034°39'0 0.0
2018-Apr-14 10:51N 31°50' E 034°39'0 0.0
2018-Apr-14 10:27N 31°50' E 034°39'0 0.0
2018-Apr-14 10:00N 31°50' E 034°39'0 0.0
2018-Apr-14 09:09N 31°50' E 034°39'0 0.0
2018-Apr-14 08:54N 31°50' E 034°39'0 0.0
2018-Apr-13 22:21N 31°50' E 034°39'0 0.0
2018-Apr-13 21:51N 31°50' E 034°39'0 0.0
2018-Apr-13 20:57N 31°50' E 034°39'0 0.0
2018-Apr-13 20:21N 31°50' E 034°39'0 0.0
2018-Apr-13 20:00N 31°50' E 034°39'0 0.0
2018-Apr-13 19:21N 31°50' E 034°39'0 0.0
2018-Apr-13 18:45N 31°50' E 034°39'0 0.0
2018-Apr-13 18:30N 31°50' E 034°39'0 0.0
2018-Apr-13 18:00N 31°50' E 034°39'0 0.0
2018-Apr-13 17:30N 31°50' E 034°39'0 0.0
2018-Apr-13 16:54N 31°50' E 034°39'0 0.0
2018-Apr-13 16:30N 31°50' E 034°39'0 0.0
2018-Apr-13 16:00N 31°50' E 034°39'0 0.0
2018-Apr-13 15:27N 31°50' E 034°39'0 0.0
2018-Apr-13 14:57N 31°50' E 034°39'0 0.0
2018-Apr-13 14:30N 31°50' E 034°39'0 0.0
2018-Apr-13 14:00N 31°50' E 034°39'0 0.0
2018-Apr-13 13:30N 31°50' E 034°39'0 0.0
2018-Apr-13 12:51N 31°50' E 034°39'0 0.0
2018-Apr-13 12:30N 31°50' E 034°39'0 0.0
2018-Apr-13 12:00N 31°50' E 034°39'0 0.0
2018-Apr-13 11:24N 31°50' E 034°39'0 0.0
2018-Apr-13 11:00N 31°50' E 034°39'0 0.0
2018-Apr-13 10:30N 31°50' E 034°39'0 0.0
2018-Apr-13 09:57N 31°50' E 034°39'0 0.0
2018-Apr-13 09:27N 31°50' E 034°39'  
2018-Apr-07 19:21N 31°50' E 034°39'0 0.0
2018-Apr-07 18:57N 31°50' E 034°39'0 0.0
2018-Apr-07 18:21N 31°50' E 034°39'0 0.0
2018-Apr-07 18:00N 31°50' E 034°39'0 0.0
2018-Apr-07 13:39N 31°50' E 034°39'0 0.0
2018-Apr-07 13:09N 31°50' E 034°39'0 0.0
2018-Apr-07 12:57N 31°50' E 034°39'0 0.0
2018-Apr-07 11:08N 31°50' E 034°39'0 0.0
2018-Apr-07 11:00N 31°50' E 034°39'0 0.0
2018-Apr-07 10:30N 31°50' E 034°39'  
Track history (hours):
 
Tides and Currents Weather Stations Pressure Air Temp Water Temp Dewpoint Dewpoint Depression Visibility Wind Speed Wind Dir Waves Ship Positions

Nor Naomi

Last reported at 2018-Apr-17 07:45 UTC. Time now 2018-Apr-27 01:11 UTC.
Position N 32°51' E 035°01'.
Warning: this ship's position is 9 days out of date.

Length 86 m; draft 5.1 m.

Type: Ship. MMSI: 538007432.

Date/timePositionNaut miles runAvg speedWind from/ knotsBaromVisibWave heightAir tempDewpointWater temp
2018-Apr-17 07:45N 32°51' E 035°01'2 5.6
2018-Apr-17 07:25N 32°51' E 034°59'0 0.1
2018-Apr-17 06:56N 32°51' E 034°59'0 0.4
2018-Apr-17 06:29N 32°52' E 034°59'0 0.5
2018-Apr-17 06:00N 32°51' E 034°58'0 0.6
2018-Apr-17 05:29N 32°51' E 034°58'0 1.0
2018-Apr-17 05:00N 32°51' E 034°59'0 0.4
2018-Apr-17 04:26N 32°51' E 034°58'0 0.6
2018-Apr-17 03:58N 32°51' E 034°58'0 0.4
2018-Apr-17 03:29N 32°51' E 034°59'0 0.3
2018-Apr-17 03:00N 32°51' E 034°59'0 0.2
2018-Apr-17 02:27N 32°51' E 034°59'0 0.3
2018-Apr-17 01:59N 32°51' E 034°59'0 0.4
2018-Apr-17 01:28N 32°51' E 034°59'1 2.0
2018-Apr-17 01:00N 32°52' E 034°58'4 7.5
2018-Apr-17 00:30N 32°52' E 034°53'3 6.7
2018-Apr-16 23:59N 32°50' E 034°50'5 9.6
2018-Apr-16 23:30N 32°45' E 034°49'5 9.5
2018-Apr-16 23:01N 32°41' E 034°47'5 9.4
2018-Apr-16 22:31N 32°36' E 034°46'5 9.4
2018-Apr-16 22:00N 32°32' E 034°44'5 9.2
2018-Apr-16 21:30N 32°27' E 034°43'5 9.2
2018-Apr-16 21:00N 32°23' E 034°41'5 9.1
2018-Apr-16 20:30N 32°18' E 034°39'4 9.0
2018-Apr-16 20:00N 32°14' E 034°38'5 9.1
2018-Apr-16 19:30N 32°10' E 034°36'5 9.4
2018-Apr-16 19:01N 32°05' E 034°35'5 9.1
2018-Apr-16 18:28N 32°01' E 034°33'8 8.5
2018-Apr-16 17:35N 31°53' E 034°31'1 8.7
2018-Apr-16 17:30N 31°53' E 034°32'5 9.0
2018-Apr-16 16:59N 31°52' E 034°37'17 0.6
2018-Apr-15 13:42N 31°45' E 034°18'0 0.0
2018-Apr-15 13:15N 31°45' E 034°18'0 0.0
2018-Apr-15 13:00N 31°45' E 034°18'0 0.0
2018-Apr-15 12:25N 31°45' E 034°18'0 0.0
2018-Apr-15 12:00N 31°45' E 034°18'0 0.0
2018-Apr-15 11:30N 31°45' E 034°18'0 0.0
2018-Apr-15 11:00N 31°45' E 034°18'0 0.0
2018-Apr-15 10:29N 31°45' E 034°18'0 0.0
2018-Apr-15 10:00N 31°45' E 034°18'0 0.3
2018-Apr-15 09:30N 31°45' E 034°19'1 2.4
2018-Apr-15 09:00N 31°45' E 034°17'11 3.7
2018-Apr-15 06:01N 31°49' E 034°29'0 9.5
2018-Apr-15 06:00N 31°49' E 034°30'8 0.8
2018-Apr-14 20:51N 31°50' E 034°39'0 0.0
2018-Apr-14 20:15N 31°50' E 034°39'0 0.0
2018-Apr-14 19:57N 31°50' E 034°39'0 0.0
2018-Apr-14 18:15N 31°50' E 034°39'0 0.0
2018-Apr-14 18:00N 31°50' E 034°39'0 0.0
2018-Apr-14 17:30N 31°50' E 034°39'0 0.0
2018-Apr-14 17:00N 31°50' E 034°39'0 0.0
2018-Apr-14 16:27N 31°50' E 034°39'0 0.0
2018-Apr-14 16:00N 31°50' E 034°39'0 0.0
2018-Apr-14 14:51N 31°50' E 034°39'0 0.0
2018-Apr-14 13:45N 31°50' E 034°39'0 0.0
2018-Apr-14 13:18N 31°50' E 034°39'0 0.0
2018-Apr-14 12:57N 31°50' E 034°39'0 0.0
2018-Apr-14 12:30N 31°50' E 034°39'0 0.0
2018-Apr-14 11:57N 31°50' E 034°39'0 0.0
2018-Apr-14 11:15N 31°50' E 034°39'0 0.0
2018-Apr-14 10:51N 31°50' E 034°39'0 0.0
2018-Apr-14 10:27N 31°50' E 034°39'0 0.0
2018-Apr-14 10:00N 31°50' E 034°39'0 0.0
2018-Apr-14 09:09N 31°50' E 034°39'0 0.0
2018-Apr-14 08:54N 31°50' E 034°39'0 0.0
2018-Apr-13 22:21N 31°50' E 034°39'0 0.0
2018-Apr-13 21:51N 31°50' E 034°39'0 0.0
2018-Apr-13 20:57N 31°50' E 034°39'0 0.0
2018-Apr-13 20:21N 31°50' E 034°39'0 0.0
2018-Apr-13 20:00N 31°50' E 034°39'0 0.0
2018-Apr-13 19:21N 31°50' E 034°39'0 0.0
2018-Apr-13 18:45N 31°50' E 034°39'0 0.0
2018-Apr-13 18:30N 31°50' E 034°39'0 0.0
2018-Apr-13 18:00N 31°50' E 034°39'0 0.0
2018-Apr-13 17:30N 31°50' E 034°39'0 0.0
2018-Apr-13 16:54N 31°50' E 034°39'0 0.0
2018-Apr-13 16:30N 31°50' E 034°39'0 0.0
2018-Apr-13 16:00N 31°50' E 034°39'0 0.0
2018-Apr-13 15:27N 31°50' E 034°39'0 0.0
2018-Apr-13 14:57N 31°50' E 034°39'0 0.0
2018-Apr-13 14:30N 31°50' E 034°39'0 0.0
2018-Apr-13 14:00N 31°50' E 034°39'0 0.0
2018-Apr-13 13:30N 31°50' E 034°39'0 0.0
2018-Apr-13 12:51N 31°50' E 034°39'0 0.0
2018-Apr-13 12:30N 31°50' E 034°39'0 0.0
2018-Apr-13 12:00N 31°50' E 034°39'0 0.0
2018-Apr-13 11:24N 31°50' E 034°39'0 0.0
2018-Apr-13 11:00N 31°50' E 034°39'0 0.0
2018-Apr-13 10:30N 31°50' E 034°39'0 0.0
2018-Apr-13 09:57N 31°50' E 034°39'0 0.0
2018-Apr-13 09:27N 31°50' E 034°39'  
2018-Apr-07 19:21N 31°50' E 034°39'0 0.0
2018-Apr-07 18:57N 31°50' E 034°39'0 0.0
2018-Apr-07 18:21N 31°50' E 034°39'0 0.0
2018-Apr-07 18:00N 31°50' E 034°39'0 0.0
2018-Apr-07 13:39N 31°50' E 034°39'0 0.0
2018-Apr-07 13:09N 31°50' E 034°39'0 0.0
2018-Apr-07 12:57N 31°50' E 034°39'0 0.0
2018-Apr-07 11:08N 31°50' E 034°39'0 0.0
2018-Apr-07 11:00N 31°50' E 034°39'0 0.0
2018-Apr-07 10:30N 31°50' E 034°39'  

Dump ship's entire track history